sensor_id;sensor_type;location;lat;lon;timestamp;temperature;humidity
12309;DHT22;6217;48.150;17.142;2023-11-19T00:03:51;6.70;73.90
12309;DHT22;6217;48.150;17.142;2023-11-19T00:07:57;6.70;74.00
12309;DHT22;6217;48.150;17.142;2023-11-19T00:12:04;6.70;74.00
12309;DHT22;6217;48.150;17.142;2023-11-19T00:16:10;6.70;73.90
12309;DHT22;6217;48.150;17.142;2023-11-19T00:20:19;6.40;74.30
12309;DHT22;6217;48.150;17.142;2023-11-19T00:24:25;6.50;74.60
12309;DHT22;6217;48.150;17.142;2023-11-19T00:28:31;6.50;74.60
12309;DHT22;6217;48.150;17.142;2023-11-19T00:32:38;6.50;74.60
12309;DHT22;6217;48.150;17.142;2023-11-19T00:36:45;6.60;74.50
12309;DHT22;6217;48.150;17.142;2023-11-19T00:40:51;6.60;74.40
12309;DHT22;6217;48.150;17.142;2023-11-19T00:44:57;6.70;74.40
12309;DHT22;6217;48.150;17.142;2023-11-19T00:49:03;6.70;74.60
12309;DHT22;6217;48.150;17.142;2023-11-19T00:53:09;6.80;74.50
12309;DHT22;6217;48.150;17.142;2023-11-19T00:57:15;6.70;74.40
12309;DHT22;6217;48.150;17.142;2023-11-19T01:01:21;6.80;74.40
12309;DHT22;6217;48.150;17.142;2023-11-19T01:05:27;6.70;74.40
12309;DHT22;6217;48.150;17.142;2023-11-19T01:09:33;6.60;74.50
12309;DHT22;6217;48.150;17.142;2023-11-19T01:13:41;6.70;74.70
12309;DHT22;6217;48.150;17.142;2023-11-19T01:17:46;6.60;74.50
12309;DHT22;6217;48.150;17.142;2023-11-19T01:21:52;6.60;74.70
12309;DHT22;6217;48.150;17.142;2023-11-19T01:25:59;6.50;75.00
12309;DHT22;6217;48.150;17.142;2023-11-19T01:30:05;6.50;74.90
12309;DHT22;6217;48.150;17.142;2023-11-19T01:34:15;6.50;75.00
12309;DHT22;6217;48.150;17.142;2023-11-19T01:38:20;6.40;75.30
12309;DHT22;6217;48.150;17.142;2023-11-19T01:42:27;6.40;75.40
12309;DHT22;6217;48.150;17.142;2023-11-19T01:46:34;6.50;75.20
12309;DHT22;6217;48.150;17.142;2023-11-19T01:50:41;6.50;75.10
12309;DHT22;6217;48.150;17.142;2023-11-19T01:54:47;6.70;75.00
12309;DHT22;6217;48.150;17.142;2023-11-19T01:58:55;6.70;75.00
12309;DHT22;6217;48.150;17.142;2023-11-19T02:03:01;6.70;75.10
12309;DHT22;6217;48.150;17.142;2023-11-19T02:07:09;6.80;75.40
12309;DHT22;6217;48.150;17.142;2023-11-19T02:11:15;6.70;75.50
12309;DHT22;6217;48.150;17.142;2023-11-19T02:15:21;6.80;75.30
12309;DHT22;6217;48.150;17.142;2023-11-19T02:19:30;6.70;75.10
12309;DHT22;6217;48.150;17.142;2023-11-19T02:23:36;6.50;75.30
12309;DHT22;6217;48.150;17.142;2023-11-19T02:27:57;6.40;75.50
12309;DHT22;6217;48.150;17.142;2023-11-19T02:32:06;6.50;75.70
12309;DHT22;6217;48.150;17.142;2023-11-19T02:36:15;6.50;75.50
12309;DHT22;6217;48.150;17.142;2023-11-19T02:40:22;6.60;75.40
12309;DHT22;6217;48.150;17.142;2023-11-19T02:44:30;6.60;75.30
12309;DHT22;6217;48.150;17.142;2023-11-19T02:48:36;6.60;75.20
12309;DHT22;6217;48.150;17.142;2023-11-19T02:52:42;6.50;75.20
12309;DHT22;6217;48.150;17.142;2023-11-19T02:56:51;6.40;75.40
12309;DHT22;6217;48.150;17.142;2023-11-19T03:01:01;6.40;75.60
12309;DHT22;6217;48.150;17.142;2023-11-19T03:05:15;6.30;75.40
12309;DHT22;6217;48.150;17.142;2023-11-19T03:09:22;6.30;75.80
12309;DHT22;6217;48.150;17.142;2023-11-19T03:13:29;6.40;76.10
12309;DHT22;6217;48.150;17.142;2023-11-19T03:17:39;6.40;75.90
12309;DHT22;6217;48.150;17.142;2023-11-19T03:21:45;6.50;76.10
12309;DHT22;6217;48.150;17.142;2023-11-19T03:25:51;6.50;75.90
12309;DHT22;6217;48.150;17.142;2023-11-19T03:29:57;6.50;75.80
12309;DHT22;6217;48.150;17.142;2023-11-19T03:34:03;6.40;76.00
12309;DHT22;6217;48.150;17.142;2023-11-19T03:38:09;6.40;76.10
12309;DHT22;6217;48.150;17.142;2023-11-19T03:42:15;6.50;76.20
12309;DHT22;6217;48.150;17.142;2023-11-19T03:46:21;6.50;76.10
12309;DHT22;6217;48.150;17.142;2023-11-19T03:50:27;6.50;76.30
12309;DHT22;6217;48.150;17.142;2023-11-19T03:54:33;6.50;76.20
12309;DHT22;6217;48.150;17.142;2023-11-19T03:58:39;6.40;76.20
12309;DHT22;6217;48.150;17.142;2023-11-19T04:02:45;6.40;76.20
12309;DHT22;6217;48.150;17.142;2023-11-19T04:06:52;6.40;76.20
12309;DHT22;6217;48.150;17.142;2023-11-19T04:11:00;6.30;76.50
12309;DHT22;6217;48.150;17.142;2023-11-19T04:15:06;6.30;76.70
12309;DHT22;6217;48.150;17.142;2023-11-19T04:19:13;6.30;76.80
12309;DHT22;6217;48.150;17.142;2023-11-19T04:23:19;6.20;76.80
12309;DHT22;6217;48.150;17.142;2023-11-19T04:27:24;6.20;77.00
12309;DHT22;6217;48.150;17.142;2023-11-19T04:31:30;6.20;76.90
12309;DHT22;6217;48.150;17.142;2023-11-19T04:35:39;6.20;77.10
12309;DHT22;6217;48.150;17.142;2023-11-19T04:39:45;6.10;77.20
12309;DHT22;6217;48.150;17.142;2023-11-19T04:43:51;6.20;77.40
12309;DHT22;6217;48.150;17.142;2023-11-19T04:47:57;6.20;77.10
12309;DHT22;6217;48.150;17.142;2023-11-19T04:52:03;6.20;77.20
12309;DHT22;6217;48.150;17.142;2023-11-19T04:56:10;6.30;76.90
12309;DHT22;6217;48.150;17.142;2023-11-19T05:00:18;6.30;77.00
12309;DHT22;6217;48.150;17.142;2023-11-19T05:04:24;6.30;77.20
12309;DHT22;6217;48.150;17.142;2023-11-19T05:08:30;6.30;77.10
12309;DHT22;6217;48.150;17.142;2023-11-19T05:12:36;6.20;77.40
12309;DHT22;6217;48.150;17.142;2023-11-19T05:16:42;6.10;77.30
12309;DHT22;6217;48.150;17.142;2023-11-19T05:20:48;6.00;77.60
12309;DHT22;6217;48.150;17.142;2023-11-19T05:24:54;6.00;77.80
12309;DHT22;6217;48.150;17.142;2023-11-19T05:29:01;6.00;77.50
12309;DHT22;6217;48.150;17.142;2023-11-19T05:33:07;5.90;77.70
12309;DHT22;6217;48.150;17.142;2023-11-19T05:37:13;5.70;78.10
12309;DHT22;6217;48.150;17.142;2023-11-19T05:41:19;5.70;78.60
12309;DHT22;6217;48.150;17.142;2023-11-19T05:45:25;5.70;78.70
12309;DHT22;6217;48.150;17.142;2023-11-19T05:49:31;5.60;78.50
12309;DHT22;6217;48.150;17.142;2023-11-19T05:53:37;5.30;79.00
12309;DHT22;6217;48.150;17.142;2023-11-19T05:57:43;5.20;79.50
12309;DHT22;6217;48.150;17.142;2023-11-19T06:01:50;5.10;79.70
12309;DHT22;6217;48.150;17.142;2023-11-19T06:05:56;5.00;80.00
12309;DHT22;6217;48.150;17.142;2023-11-19T06:10:02;5.00;80.00
12309;DHT22;6217;48.150;17.142;2023-11-19T06:14:11;5.00;80.20
12309;DHT22;6217;48.150;17.142;2023-11-19T06:18:17;5.00;80.30
12309;DHT22;6217;48.150;17.142;2023-11-19T06:22:25;5.10;80.10
12309;DHT22;6217;48.150;17.142;2023-11-19T06:26:31;5.00;80.40
12309;DHT22;6217;48.150;17.142;2023-11-19T06:30:37;5.00;80.70
12309;DHT22;6217;48.150;17.142;2023-11-19T06:34:43;5.00;81.70
12309;DHT22;6217;48.150;17.142;2023-11-19T06:38:49;4.90;81.30
12309;DHT22;6217;48.150;17.142;2023-11-19T06:42:55;5.00;81.40
12309;DHT22;6217;48.150;17.142;2023-11-19T06:47:00;5.10;81.40
12309;DHT22;6217;48.150;17.142;2023-11-19T06:51:06;5.10;81.70
12309;DHT22;6217;48.150;17.142;2023-11-19T06:55:12;5.00;81.90
12309;DHT22;6217;48.150;17.142;2023-11-19T06:59:18;5.00;82.20
12309;DHT22;6217;48.150;17.142;2023-11-19T07:03:24;5.10;82.20
12309;DHT22;6217;48.150;17.142;2023-11-19T07:07:31;5.00;82.50
12309;DHT22;6217;48.150;17.142;2023-11-19T07:11:38;5.10;82.40
12309;DHT22;6217;48.150;17.142;2023-11-19T07:15:45;5.20;82.30
12309;DHT22;6217;48.150;17.142;2023-11-19T07:19:51;5.30;82.40
12309;DHT22;6217;48.150;17.142;2023-11-19T07:23:56;5.30;82.30
12309;DHT22;6217;48.150;17.142;2023-11-19T07:28:02;5.40;82.20
12309;DHT22;6217;48.150;17.142;2023-11-19T07:32:10;5.40;82.20
12309;DHT22;6217;48.150;17.142;2023-11-19T07:36:16;5.50;82.40
12309;DHT22;6217;48.150;17.142;2023-11-19T07:40:22;5.60;82.30
12309;DHT22;6217;48.150;17.142;2023-11-19T07:44:28;5.70;82.60
12309;DHT22;6217;48.150;17.142;2023-11-19T07:48:34;5.80;82.50
12309;DHT22;6217;48.150;17.142;2023-11-19T07:52:41;5.80;82.60
12309;DHT22;6217;48.150;17.142;2023-11-19T07:56:47;5.90;82.80
12309;DHT22;6217;48.150;17.142;2023-11-19T08:00:55;6.00;83.10
12309;DHT22;6217;48.150;17.142;2023-11-19T08:05:01;6.00;82.90
12309;DHT22;6217;48.150;17.142;2023-11-19T08:09:07;6.00;83.60
12309;DHT22;6217;48.150;17.142;2023-11-19T08:13:19;5.90;83.90
12309;DHT22;6217;48.150;17.142;2023-11-19T08:17:25;6.10;83.70
12309;DHT22;6217;48.150;17.142;2023-11-19T08:21:31;6.10;83.80
12309;DHT22;6217;48.150;17.142;2023-11-19T08:25:37;6.30;83.70
12309;DHT22;6217;48.150;17.142;2023-11-19T08:29:44;6.40;83.50
12309;DHT22;6217;48.150;17.142;2023-11-19T08:33:50;6.60;83.50
12309;DHT22;6217;48.150;17.142;2023-11-19T08:37:55;6.70;83.30
12309;DHT22;6217;48.150;17.142;2023-11-19T08:42:02;6.80;83.10
12309;DHT22;6217;48.150;17.142;2023-11-19T08:46:12;6.80;83.20
12309;DHT22;6217;48.150;17.142;2023-11-19T08:50:18;6.80;83.20
12309;DHT22;6217;48.150;17.142;2023-11-19T08:54:24;6.90;83.10
12309;DHT22;6217;48.150;17.142;2023-11-19T08:58:29;6.90;83.10
12309;DHT22;6217;48.150;17.142;2023-11-19T09:02:36;7.00;83.10
12309;DHT22;6217;48.150;17.142;2023-11-19T09:06:44;7.00;83.60
12309;DHT22;6217;48.150;17.142;2023-11-19T09:10:50;7.00;82.90
12309;DHT22;6217;48.150;17.142;2023-11-19T09:14:59;7.00;82.70
12309;DHT22;6217;48.150;17.142;2023-11-19T09:19:05;7.00;82.90
12309;DHT22;6217;48.150;17.142;2023-11-19T09:23:11;7.00;83.50
12309;DHT22;6217;48.150;17.142;2023-11-19T09:27:17;7.00;82.80
12309;DHT22;6217;48.150;17.142;2023-11-19T09:31:23;7.10;82.90
12309;DHT22;6217;48.150;17.142;2023-11-19T09:35:29;7.20;82.70
12309;DHT22;6217;48.150;17.142;2023-11-19T09:39:36;7.30;82.50
12309;DHT22;6217;48.150;17.142;2023-11-19T09:43:42;7.30;82.40
12309;DHT22;6217;48.150;17.142;2023-11-19T09:47:50;7.30;82.20
12309;DHT22;6217;48.150;17.142;2023-11-19T09:51:58;7.20;82.30
12309;DHT22;6217;48.150;17.142;2023-11-19T09:56:05;7.30;82.50
12309;DHT22;6217;48.150;17.142;2023-11-19T10:00:14;7.30;82.10
12309;DHT22;6217;48.150;17.142;2023-11-19T10:04:21;7.20;82.10
12309;DHT22;6217;48.150;17.142;2023-11-19T10:08:27;7.10;81.90
12309;DHT22;6217;48.150;17.142;2023-11-19T10:12:33;7.10;82.20
12309;DHT22;6217;48.150;17.142;2023-11-19T10:16:39;7.10;82.00
12309;DHT22;6217;48.150;17.142;2023-11-19T10:20:46;7.20;82.10
12309;DHT22;6217;48.150;17.142;2023-11-19T10:24:52;7.30;82.10
12309;DHT22;6217;48.150;17.142;2023-11-19T10:28:58;7.30;81.80
12309;DHT22;6217;48.150;17.142;2023-11-19T10:37:29;7.20;81.50
12309;DHT22;6217;48.150;17.142;2023-11-19T10:41:37;7.00;81.80
12309;DHT22;6217;48.150;17.142;2023-11-19T10:45:43;7.00;82.10
12309;DHT22;6217;48.150;17.142;2023-11-19T10:49:49;7.00;82.20
12309;DHT22;6217;48.150;17.142;2023-11-19T10:54:01;7.00;81.80
12309;DHT22;6217;48.150;17.142;2023-11-19T10:58:12;6.90;82.10
12309;DHT22;6217;48.150;17.142;2023-11-19T11:02:24;6.90;82.30
12309;DHT22;6217;48.150;17.142;2023-11-19T11:06:33;7.00;82.00
12309;DHT22;6217;48.150;17.142;2023-11-19T11:10:43;7.10;81.90
12309;DHT22;6217;48.150;17.142;2023-11-19T11:15:04;7.20;81.90
12309;DHT22;6217;48.150;17.142;2023-11-19T11:19:11;7.20;81.50
12309;DHT22;6217;48.150;17.142;2023-11-19T11:23:39;7.10;81.60
12309;DHT22;6217;48.150;17.142;2023-11-19T11:28:04;7.10;81.80
12309;DHT22;6217;48.150;17.142;2023-11-19T11:32:41;7.00;81.80
12309;DHT22;6217;48.150;17.142;2023-11-19T11:41:23;7.30;81.80
12309;DHT22;6217;48.150;17.142;2023-11-19T11:45:40;7.20;81.70
12309;DHT22;6217;48.150;17.142;2023-11-19T11:49:49;7.30;81.90
12309;DHT22;6217;48.150;17.142;2023-11-19T11:53:58;7.40;81.60
12309;DHT22;6217;48.150;17.142;2023-11-19T11:58:07;7.40;81.50
12309;DHT22;6217;48.150;17.142;2023-11-19T12:02:15;7.40;81.60
12309;DHT22;6217;48.150;17.142;2023-11-19T12:06:27;7.50;81.80
12309;DHT22;6217;48.150;17.142;2023-11-19T12:10:42;7.60;81.80
12309;DHT22;6217;48.150;17.142;2023-11-19T12:15:00;7.60;81.60
12309;DHT22;6217;48.150;17.142;2023-11-19T12:19:08;7.60;81.50
12309;DHT22;6217;48.150;17.142;2023-11-19T12:23:14;7.50;81.50
12309;DHT22;6217;48.150;17.142;2023-11-19T12:27:21;7.50;81.80
12309;DHT22;6217;48.150;17.142;2023-11-19T12:31:28;7.50;81.80
12309;DHT22;6217;48.150;17.142;2023-11-19T12:35:41;7.50;81.90
12309;DHT22;6217;48.150;17.142;2023-11-19T12:39:48;7.60;81.90
12309;DHT22;6217;48.150;17.142;2023-11-19T12:43:54;7.60;82.10
12309;DHT22;6217;48.150;17.142;2023-11-19T12:48:07;7.60;82.10
12309;DHT22;6217;48.150;17.142;2023-11-19T12:52:15;7.60;82.30
12309;DHT22;6217;48.150;17.142;2023-11-19T12:56:21;7.70;82.20
12309;DHT22;6217;48.150;17.142;2023-11-19T13:00:28;7.70;82.40
12309;DHT22;6217;48.150;17.142;2023-11-19T13:04:35;7.70;82.30
12309;DHT22;6217;48.150;17.142;2023-11-19T13:08:44;7.70;82.50
12309;DHT22;6217;48.150;17.142;2023-11-19T13:13:07;7.70;82.60
12309;DHT22;6217;48.150;17.142;2023-11-19T13:17:14;7.70;82.70
12309;DHT22;6217;48.150;17.142;2023-11-19T13:21:21;7.70;82.70
12309;DHT22;6217;48.150;17.142;2023-11-19T13:25:27;7.70;82.80
12309;DHT22;6217;48.150;17.142;2023-11-19T13:29:33;7.70;82.90
12309;DHT22;6217;48.150;17.142;2023-11-19T13:33:41;7.50;83.00
12309;DHT22;6217;48.150;17.142;2023-11-19T13:37:47;7.50;83.20
12309;DHT22;6217;48.150;17.142;2023-11-19T13:41:53;7.40;83.50
12309;DHT22;6217;48.150;17.142;2023-11-19T13:45:59;7.40;83.70
12309;DHT22;6217;48.150;17.142;2023-11-19T13:50:05;7.50;83.60
12309;DHT22;6217;48.150;17.142;2023-11-19T13:54:11;7.50;83.60
12309;DHT22;6217;48.150;17.142;2023-11-19T13:58:19;7.40;84.00
12309;DHT22;6217;48.150;17.142;2023-11-19T14:02:27;7.50;84.30
12309;DHT22;6217;48.150;17.142;2023-11-19T14:06:32;7.60;84.10
12309;DHT22;6217;48.150;17.142;2023-11-19T14:10:39;7.50;84.10
12309;DHT22;6217;48.150;17.142;2023-11-19T14:14:45;7.40;84.40
12309;DHT22;6217;48.150;17.142;2023-11-19T14:18:51;7.40;84.70
12309;DHT22;6217;48.150;17.142;2023-11-19T14:22:57;7.30;84.80
12309;DHT22;6217;48.150;17.142;2023-11-19T14:27:03;7.40;85.00
12309;DHT22;6217;48.150;17.142;2023-11-19T14:31:09;7.40;85.00
12309;DHT22;6217;48.150;17.142;2023-11-19T14:35:15;7.40;85.10
12309;DHT22;6217;48.150;17.142;2023-11-19T14:39:21;7.40;85.10
12309;DHT22;6217;48.150;17.142;2023-11-19T14:43:27;7.40;85.30
12309;DHT22;6217;48.150;17.142;2023-11-19T14:47:33;7.30;85.50
12309;DHT22;6217;48.150;17.142;2023-11-19T14:51:39;7.30;85.90
12309;DHT22;6217;48.150;17.142;2023-11-19T14:55:45;7.20;86.00
12309;DHT22;6217;48.150;17.142;2023-11-19T14:59:51;7.30;86.10
12309;DHT22;6217;48.150;17.142;2023-11-19T15:03:57;7.20;86.10
12309;DHT22;6217;48.150;17.142;2023-11-19T15:08:03;7.10;86.20
12309;DHT22;6217;48.150;17.142;2023-11-19T15:12:09;7.00;86.70
12309;DHT22;6217;48.150;17.142;2023-11-19T15:16:15;6.90;87.00
12309;DHT22;6217;48.150;17.142;2023-11-19T15:20:27;6.90;87.20
12309;DHT22;6217;48.150;17.142;2023-11-19T15:24:35;7.00;87.30
12309;DHT22;6217;48.150;17.142;2023-11-19T15:28:45;7.10;87.00
12309;DHT22;6217;48.150;17.142;2023-11-19T15:32:50;7.20;86.80
12309;DHT22;6217;48.150;17.142;2023-11-19T15:36:56;7.10;86.50
12309;DHT22;6217;48.150;17.142;2023-11-19T15:41:03;7.10;86.90
12309;DHT22;6217;48.150;17.142;2023-11-19T15:45:10;7.00;87.10
12309;DHT22;6217;48.150;17.142;2023-11-19T15:49:17;7.00;87.20
12309;DHT22;6217;48.150;17.142;2023-11-19T15:53:23;7.00;87.50
12309;DHT22;6217;48.150;17.142;2023-11-19T15:57:29;6.90;87.70
12309;DHT22;6217;48.150;17.142;2023-11-19T16:01:35;6.90;87.60
12309;DHT22;6217;48.150;17.142;2023-11-19T16:05:41;6.90;87.80
12309;DHT22;6217;48.150;17.142;2023-11-19T16:09:47;7.00;87.80
12309;DHT22;6217;48.150;17.142;2023-11-19T16:13:54;7.00;87.70
12309;DHT22;6217;48.150;17.142;2023-11-19T16:18:00;7.00;87.90
12309;DHT22;6217;48.150;17.142;2023-11-19T16:22:06;7.00;88.10
12309;DHT22;6217;48.150;17.142;2023-11-19T16:26:17;7.00;88.10
12309;DHT22;6217;48.150;17.142;2023-11-19T16:30:23;7.10;88.10
12309;DHT22;6217;48.150;17.142;2023-11-19T16:34:28;7.00;88.10
12309;DHT22;6217;48.150;17.142;2023-11-19T16:38:35;7.00;88.10
12309;DHT22;6217;48.150;17.142;2023-11-19T16:42:41;7.00;88.20
12309;DHT22;6217;48.150;17.142;2023-11-19T16:46:47;6.90;88.20
12309;DHT22;6217;48.150;17.142;2023-11-19T16:50:53;6.90;88.50
12309;DHT22;6217;48.150;17.142;2023-11-19T16:54:59;7.10;88.50
12309;DHT22;6217;48.150;17.142;2023-11-19T16:59:08;7.10;88.30
12309;DHT22;6217;48.150;17.142;2023-11-19T17:03:14;7.10;88.20
12309;DHT22;6217;48.150;17.142;2023-11-19T17:07:20;7.00;88.30
12309;DHT22;6217;48.150;17.142;2023-11-19T17:11:26;7.00;88.70
12309;DHT22;6217;48.150;17.142;2023-11-19T17:15:32;7.00;88.50
12309;DHT22;6217;48.150;17.142;2023-11-19T17:19:38;6.90;88.80
12309;DHT22;6217;48.150;17.142;2023-11-19T17:23:45;6.80;89.10
12309;DHT22;6217;48.150;17.142;2023-11-19T17:27:50;6.80;89.40
12309;DHT22;6217;48.150;17.142;2023-11-19T17:31:56;6.90;89.50
12309;DHT22;6217;48.150;17.142;2023-11-19T17:36:03;6.90;89.20
12309;DHT22;6217;48.150;17.142;2023-11-19T17:40:12;6.90;89.40
12309;DHT22;6217;48.150;17.142;2023-11-19T17:44:19;6.80;89.30
12309;DHT22;6217;48.150;17.142;2023-11-19T17:48:25;6.80;89.70
12309;DHT22;6217;48.150;17.142;2023-11-19T17:52:31;6.70;89.60
12309;DHT22;6217;48.150;17.142;2023-11-19T17:56:38;6.80;90.00
12309;DHT22;6217;48.150;17.142;2023-11-19T18:00:45;6.80;90.10
12309;DHT22;6217;48.150;17.142;2023-11-19T18:04:50;6.70;90.10
12309;DHT22;6217;48.150;17.142;2023-11-19T18:08:57;6.70;90.10
12309;DHT22;6217;48.150;17.142;2023-11-19T18:13:03;6.60;90.30
12309;DHT22;6217;48.150;17.142;2023-11-19T18:17:08;6.60;90.40
12309;DHT22;6217;48.150;17.142;2023-11-19T18:21:16;6.60;90.50
12309;DHT22;6217;48.150;17.142;2023-11-19T18:25:23;6.60;90.60
12309;DHT22;6217;48.150;17.142;2023-11-19T18:29:29;6.60;90.60
12309;DHT22;6217;48.150;17.142;2023-11-19T18:33:35;6.60;90.70
12309;DHT22;6217;48.150;17.142;2023-11-19T18:37:41;6.60;90.90
12309;DHT22;6217;48.150;17.142;2023-11-19T18:41:47;6.60;90.60
12309;DHT22;6217;48.150;17.142;2023-11-19T18:45:53;6.70;90.70
12309;DHT22;6217;48.150;17.142;2023-11-19T18:50:00;6.70;90.80
12309;DHT22;6217;48.150;17.142;2023-11-19T18:54:06;6.70;90.70
12309;DHT22;6217;48.150;17.142;2023-11-19T18:58:12;6.70;90.60
12309;DHT22;6217;48.150;17.142;2023-11-19T19:02:18;6.90;90.50
12309;DHT22;6217;48.150;17.142;2023-11-19T19:06:24;6.90;90.50
12309;DHT22;6217;48.150;17.142;2023-11-19T19:10:31;6.90;90.30
12309;DHT22;6217;48.150;17.142;2023-11-19T19:14:37;7.00;90.50
12309;DHT22;6217;48.150;17.142;2023-11-19T19:18:44;7.00;90.40
12309;DHT22;6217;48.150;17.142;2023-11-19T19:22:50;7.00;90.40
12309;DHT22;6217;48.150;17.142;2023-11-19T19:26:56;6.90;90.50
12309;DHT22;6217;48.150;17.142;2023-11-19T19:31:01;6.90;90.50
12309;DHT22;6217;48.150;17.142;2023-11-19T19:35:07;6.80;90.70
12309;DHT22;6217;48.150;17.142;2023-11-19T19:39:13;6.80;90.70
12309;DHT22;6217;48.150;17.142;2023-11-19T19:43:20;6.80;90.70
12309;DHT22;6217;48.150;17.142;2023-11-19T19:47:26;6.80;90.70
12309;DHT22;6217;48.150;17.142;2023-11-19T19:51:32;6.80;90.70
12309;DHT22;6217;48.150;17.142;2023-11-19T19:55:38;6.80;90.80
12309;DHT22;6217;48.150;17.142;2023-11-19T19:59:44;6.80;90.80
12309;DHT22;6217;48.150;17.142;2023-11-19T20:03:50;6.90;90.80
12309;DHT22;6217;48.150;17.142;2023-11-19T20:07:56;6.90;90.80
12309;DHT22;6217;48.150;17.142;2023-11-19T20:12:05;7.00;90.90
12309;DHT22;6217;48.150;17.142;2023-11-19T20:16:12;7.20;90.80
12309;DHT22;6217;48.150;17.142;2023-11-19T20:20:18;7.20;90.70
12309;DHT22;6217;48.150;17.142;2023-11-19T20:24:24;7.20;90.60
12309;DHT22;6217;48.150;17.142;2023-11-19T20:28:30;7.20;90.60
12309;DHT22;6217;48.150;17.142;2023-11-19T20:32:36;7.30;90.70
12309;DHT22;6217;48.150;17.142;2023-11-19T20:36:43;7.30;90.70
12309;DHT22;6217;48.150;17.142;2023-11-19T20:40:49;7.30;90.60
12309;DHT22;6217;48.150;17.142;2023-11-19T20:44:55;7.40;90.70
12309;DHT22;6217;48.150;17.142;2023-11-19T20:49:01;7.20;90.50
12309;DHT22;6217;48.150;17.142;2023-11-19T20:53:07;7.20;90.60
12309;DHT22;6217;48.150;17.142;2023-11-19T20:57:14;7.20;90.80
12309;DHT22;6217;48.150;17.142;2023-11-19T21:01:20;7.20;90.80
12309;DHT22;6217;48.150;17.142;2023-11-19T21:05:26;7.30;90.70
12309;DHT22;6217;48.150;17.142;2023-11-19T21:09:32;7.30;90.60
12309;DHT22;6217;48.150;17.142;2023-11-19T21:13:38;7.30;90.60
12309;DHT22;6217;48.150;17.142;2023-11-19T21:17:44;7.30;90.60
12309;DHT22;6217;48.150;17.142;2023-11-19T21:21:50;7.40;90.50
12309;DHT22;6217;48.150;17.142;2023-11-19T21:25:59;7.30;90.50
12309;DHT22;6217;48.150;17.142;2023-11-19T21:30:05;7.30;90.50
12309;DHT22;6217;48.150;17.142;2023-11-19T21:34:12;7.30;90.60
12309;DHT22;6217;48.150;17.142;2023-11-19T21:38:19;7.30;90.60
12309;DHT22;6217;48.150;17.142;2023-11-19T21:42:27;7.20;90.60
12309;DHT22;6217;48.150;17.142;2023-11-19T21:46:33;7.20;90.50
12309;DHT22;6217;48.150;17.142;2023-11-19T21:50:39;7.10;90.60
12309;DHT22;6217;48.150;17.142;2023-11-19T21:54:47;7.00;90.60
12309;DHT22;6217;48.150;17.142;2023-11-19T21:58:56;7.00;90.80
12309;DHT22;6217;48.150;17.142;2023-11-19T22:03:02;7.00;90.80
12309;DHT22;6217;48.150;17.142;2023-11-19T22:07:08;7.00;90.70
12309;DHT22;6217;48.150;17.142;2023-11-19T22:11:14;7.00;90.80
12309;DHT22;6217;48.150;17.142;2023-11-19T22:15:20;6.90;91.10
12309;DHT22;6217;48.150;17.142;2023-11-19T22:19:26;6.90;91.10
12309;DHT22;6217;48.150;17.142;2023-11-19T22:23:32;6.90;91.10
12309;DHT22;6217;48.150;17.142;2023-11-19T22:27:38;6.80;91.10
12309;DHT22;6217;48.150;17.142;2023-11-19T22:31:44;6.80;91.30
12309;DHT22;6217;48.150;17.142;2023-11-19T22:35:49;7.00;91.20
12309;DHT22;6217;48.150;17.142;2023-11-19T22:39:55;7.10;91.20
12309;DHT22;6217;48.150;17.142;2023-11-19T22:44:01;7.20;91.10
12309;DHT22;6217;48.150;17.142;2023-11-19T22:48:07;7.20;91.00
12309;DHT22;6217;48.150;17.142;2023-11-19T22:52:13;7.20;91.20
12309;DHT22;6217;48.150;17.142;2023-11-19T22:56:19;7.30;91.10
12309;DHT22;6217;48.150;17.142;2023-11-19T23:00:25;7.30;91.10
12309;DHT22;6217;48.150;17.142;2023-11-19T23:04:46;7.30;91.20
12309;DHT22;6217;48.150;17.142;2023-11-19T23:08:52;7.30;91.10
12309;DHT22;6217;48.150;17.142;2023-11-19T23:12:58;7.30;91.30
12309;DHT22;6217;48.150;17.142;2023-11-19T23:17:05;7.20;91.60
12309;DHT22;6217;48.150;17.142;2023-11-19T23:21:11;7.30;91.70
12309;DHT22;6217;48.150;17.142;2023-11-19T23:25:19;7.20;92.10
12309;DHT22;6217;48.150;17.142;2023-11-19T23:29:25;7.30;92.10
12309;DHT22;6217;48.150;17.142;2023-11-19T23:33:31;7.50;92.10
12309;DHT22;6217;48.150;17.142;2023-11-19T23:37:37;7.50;92.00
12309;DHT22;6217;48.150;17.142;2023-11-19T23:41:43;7.40;92.20
12309;DHT22;6217;48.150;17.142;2023-11-19T23:45:49;7.50;92.20
12309;DHT22;6217;48.150;17.142;2023-11-19T23:49:56;7.60;92.20
12309;DHT22;6217;48.150;17.142;2023-11-19T23:54:02;7.70;92.10
12309;DHT22;6217;48.150;17.142;2023-11-19T23:58:08;7.70;92.10
